Time;durP1;ratioP1;P1;durP2;ratioP2;P2;SDS_P1;SDS_P2;PMS_P1;PMS_P2;Temp;Humidity;BMP_temperature;BMP_pressure;BME280_temperature;BME280_humidity;BME280_pressure;Samples;Min_cycle;Max_cycle;Signal;HPM_P1;HPM_P2
2022/08/26 00:00:30;;;;;;;17.92;7.43;;;;;;;20.13;91.69;101334.34;5073999;28;20017;-75
2022/08/26 00:02:56;;;;;;;21.23;7.60;;;;;;;20.12;91.09;101331.78;5074819;28;20032;-75
2022/08/26 00:05:22;;;;;;;21.17;8.57;;;;;;;20.11;91.54;101324.63;5071996;28;20116;-75
2022/08/26 00:07:48;;;;;;;20.13;8.23;;;;;;;20.04;91.50;101338.91;5066693;28;20496;-75
2022/08/26 00:10:14;;;;;;;19.08;8.35;;;;;;;20.04;91.24;101335.31;5064981;28;20388;-75
2022/08/26 00:12:39;;;;;;;20.05;8.35;;;;;;;20.01;91.65;101330.19;5068433;28;20488;-75
2022/08/26 00:15:07;;;;;;;22.55;8.02;;;;;;;20.00;91.95;101332.09;5073282;28;20028;-75
2022/08/26 00:17:33;;;;;;;22.83;8.88;;;;;;;19.99;91.58;101337.72;5073810;28;20028;-75
2022/08/26 00:19:59;;;;;;;22.00;7.68;;;;;;;20.01;91.82;101346.56;5071782;28;20382;-75
2022/08/26 00:22:25;;;;;;;19.70;7.93;;;;;;;19.97;91.51;101339.72;5075004;28;20058;-75
2022/08/26 00:24:50;;;;;;;22.42;7.63;;;;;;;19.97;91.77;101337.00;5072815;28;20066;-75
2022/08/26 00:27:15;;;;;;;23.20;7.65;;;;;;;19.94;91.83;101342.78;5067762;28;20017;-75
2022/08/26 00:29:41;;;;;;;17.92;7.10;;;;;;;19.92;91.80;101336.63;5064613;28;20102;-75
2022/08/26 00:32:06;;;;;;;19.77;7.47;;;;;;;19.87;92.04;101335.25;5068884;28;20024;-75
2022/08/26 00:34:32;;;;;;;25.15;8.07;;;;;;;19.86;92.77;101343.59;5072928;28;20048;-75
2022/08/26 00:36:57;;;;;;;22.02;7.72;;;;;;;19.84;92.39;101341.03;5074722;28;20047;-75
2022/08/26 00:39:23;;;;;;;21.20;7.82;;;;;;;19.86;92.05;101349.06;5070221;28;20032;-75
2022/08/26 00:41:49;;;;;;;21.30;7.45;;;;;;;19.85;92.21;101350.06;5070696;28;20024;-75
2022/08/26 00:44:15;;;;;;;19.20;6.75;;;;;;;19.86;92.24;101344.44;5073358;28;20032;-75
2022/08/26 00:46:43;;;;;;;20.15;7.45;;;;;;;19.85;92.03;101342.72;5074496;28;20024;-75
2022/08/26 00:49:15;;;;;;;19.50;6.83;;;;;;;19.84;92.27;101334.69;5065991;28;20036;-75
2022/08/26 00:51:48;;;;;;;20.50;6.97;;;;;;;19.84;92.28;101331.97;5073914;28;20036;-75
2022/08/26 00:54:14;;;;;;;18.20;6.72;;;;;;;19.83;92.50;101342.03;5073755;28;20155;-75
2022/08/26 00:56:47;;;;;;;19.67;7.05;;;;;;;19.84;92.52;101343.75;5074397;28;20047;-75
2022/08/26 00:59:14;;;;;;;20.92;7.40;;;;;;;19.83;92.60;101342.03;5071768;28;20134;-75
2022/08/26 01:01:42;;;;;;;20.98;7.60;;;;;;;19.85;92.79;101347.31;5062113;28;20020;-75
2022/08/26 01:04:09;;;;;;;20.03;6.70;;;;;;;19.83;92.72;101339.31;5069886;28;20384;-75
2022/08/26 01:06:34;;;;;;;17.65;7.38;;;;;;;19.84;92.81;101341.03;5067703;28;20087;-75
2022/08/26 01:08:59;;;;;;;21.48;7.00;;;;;;;19.85;92.85;101345.44;5076192;28;20029;-75
2022/08/26 01:11:25;;;;;;;18.92;6.88;;;;;;;19.86;92.07;101349.91;5076352;28;20032;-75
2022/08/26 01:13:55;;;;;;;23.00;6.78;;;;;;;19.88;92.28;101352.47;5075171;28;20025;-75
2022/08/26 01:16:21;;;;;;;15.52;5.97;;;;;;;19.85;91.79;101350.91;5073639;28;20032;-75
2022/08/26 01:18:47;;;;;;;17.20;6.07;;;;;;;19.84;92.04;101349.22;5075908;28;20155;-75
2022/08/26 01:21:26;;;;;;;20.30;6.93;;;;;;;19.85;92.59;101348.16;5075099;28;20063;-75
2022/08/26 01:23:52;;;;;;;21.73;6.95;;;;;;;19.84;92.15;101340.16;5065255;28;20061;-75
2022/08/26 01:26:28;;;;;;;19.13;6.78;;;;;;;19.83;91.85;101333.84;5059989;28;20024;-75
2022/08/26 01:28:56;;;;;;;21.25;7.15;;;;;;;19.83;91.97;101342.03;5075584;28;20032;-75
2022/08/26 01:31:24;;;;;;;21.48;6.88;;;;;;;19.84;91.80;101341.03;5073783;28;20035;-75
2022/08/26 01:33:58;;;;;;;16.85;6.47;;;;;;;19.83;91.83;101333.00;5074620;28;20122;-75
2022/08/26 01:36:23;;;;;;;20.08;7.35;;;;;;;19.82;91.57;101329.41;5074837;28;20039;-75
2022/08/26 01:38:49;;;;;;;18.77;6.97;;;;;;;19.83;91.71;101333.00;5073526;28;20028;-75
2022/08/26 01:41:15;;;;;;;18.02;6.43;;;;;;;19.83;91.64;101333.84;5074442;28;20048;-75
2022/08/26 01:43:44;;;;;;;17.92;6.47;;;;;;;19.81;92.25;101340.47;5073567;28;20086;-75
2022/08/26 01:46:11;;;;;;;20.55;7.07;;;;;;;19.83;91.81;101341.19;5074349;28;20051;-75
2022/08/26 01:48:37;;;;;;;16.55;6.65;;;;;;;19.82;91.87;101344.94;5071826;28;20055;-75
2022/08/26 01:51:04;;;;;;;16.88;6.15;;;;;;;19.81;92.07;101346.81;5074010;28;20032;-75
2022/08/26 01:53:30;;;;;;;16.52;6.80;;;;;;;19.78;91.88;101341.69;5062109;28;20039;-75
2022/08/26 01:55:59;;;;;;;17.30;6.28;;;;;;;19.77;91.67;101348.13;5074752;28;20032;-75
2022/08/26 01:58:36;;;;;;;17.73;5.68;;;;;;;19.78;91.94;101343.50;5074616;28;20025;-75
2022/08/26 02:01:03;;;;;;;17.13;6.15;;;;;;;19.75;91.85;101344.66;5071685;28;20066;-75
2022/08/26 02:03:29;;;;;;;21.65;6.22;;;;;;;19.74;92.09;101348.44;5058112;28;20040;-75
2022/08/26 02:06:02;;;;;;;19.00;5.72;;;;;;;19.76;91.46;101346.38;5071520;28;20027;-75
2022/08/26 02:08:37;;;;;;;15.70;5.75;;;;;;;19.73;91.47;101349.44;5073875;28;20032;-75
2022/08/26 02:11:03;;;;;;;17.65;5.15;;;;;;;19.74;90.98;101356.63;5074382;28;20050;-75
2022/08/26 02:13:31;;;;;;;14.98;4.93;;;;;;;19.72;91.35;101358.63;5074897;28;20028;-75
2022/08/26 02:16:00;;;;;;;13.57;4.82;;;;;;;19.71;91.42;101351.50;5078309;28;20483;-75
2022/08/26 02:18:28;;;;;;;17.10;5.60;;;;;;;19.69;91.40;101351.66;5077763;28;20047;-75
2022/08/26 02:20:55;;;;;;;11.43;4.28;;;;;;;19.70;91.69;101360.69;5076643;28;20024;-75
2022/08/26 02:23:20;;;;;;;16.48;4.95;;;;;;;19.69;91.10;101361.69;5077968;28;20388;-75
2022/08/26 02:25:54;;;;;;;12.43;4.40;;;;;;;19.67;91.29;101366.44;5077411;28;20024;-75
2022/08/26 02:28:19;;;;;;;19.13;5.65;;;;;;;19.67;91.51;101366.44;5062485;28;20036;-75
2022/08/26 02:30:46;;;;;;;14.50;5.07;;;;;;;19.68;91.82;101370.91;5075205;28;20021;-75
2022/08/26 02:33:11;;;;;;;12.93;4.45;;;;;;;19.67;91.63;101375.47;5077722;28;20041;-75
2022/08/26 02:35:38;;;;;;;13.35;4.88;;;;;;;19.65;91.15;101371.19;5077569;28;20991;-75
2022/08/26 02:38:06;;;;;;;15.60;4.78;;;;;;;19.63;91.82;101373.22;5071119;28;20070;-75
2022/08/26 02:40:35;;;;;;;16.07;4.57;;;;;;;19.60;91.67;101370.81;5064847;28;20028;-75
2022/08/26 02:43:00;;;;;;;14.52;4.57;;;;;;;19.56;91.24;101376.59;5078148;28;20038;-75
2022/08/26 02:45:27;;;;;;;18.40;4.80;;;;;;;19.56;91.61;101373.88;5070927;28;20024;-75
2022/08/26 02:47:55;;;;;;;15.68;4.78;;;;;;;19.50;91.74;101371.78;5078078;28;20028;-75
2022/08/26 02:50:21;;;;;;;16.67;4.53;;;;;;;19.45;92.11;101371.41;5077646;28;20066;-75
2022/08/26 02:52:47;;;;;;;13.27;4.65;;;;;;;19.39;92.05;101370.16;5064743;28;20032;-75
2022/08/26 02:55:13;;;;;;;16.23;4.80;;;;;;;19.38;92.38;101379.34;5078315;28;20023;-75
2022/08/26 02:57:38;;;;;;;14.43;5.00;;;;;;;19.41;92.18;101361.81;5077121;28;20024;-75
2022/08/26 03:00:06;;;;;;;17.65;5.80;;;;;;;19.43;92.02;101369.84;5075518;28;20028;-75
2022/08/26 03:02:32;;;;;;;20.98;5.70;;;;;;;19.41;92.22;101371.88;5073790;28;20024;-75
2022/08/26 03:04:58;;;;;;;15.13;5.00;;;;;;;19.39;92.60;101367.44;5078647;28;20491;-75
2022/08/26 03:07:23;;;;;;;16.40;5.38;;;;;;;19.36;92.54;101369.63;5076777;28;20036;-75
2022/08/26 03:09:49;;;;;;;16.35;5.32;;;;;;;19.35;92.79;101373.34;5076108;28;20024;-75
2022/08/26 03:12:14;;;;;;;18.38;5.30;;;;;;;19.34;93.08;101372.50;5074969;28;20074;-75
2022/08/26 03:14:39;;;;;;;15.00;5.50;;;;;;;19.32;92.69;101362.78;5075646;28;20029;-75
2022/08/26 03:17:04;;;;;;;16.55;5.25;;;;;;;19.31;93.23;101370.09;5076375;28;20028;-75
2022/08/26 03:19:30;;;;;;;16.70;5.25;;;;;;;19.31;94.11;101366.50;5077268;28;20027;-75
2022/08/26 03:21:56;;;;;;;20.85;5.82;;;;;;;19.30;93.92;101364.81;5078279;28;20476;-75
2022/08/26 03:24:21;;;;;;;15.00;4.75;;;;;;;19.30;93.76;101368.38;5074730;28;20115;-75
2022/08/26 03:26:47;;;;;;;18.52;5.30;;;;;;;19.33;93.25;101359.88;5077932;28;20031;-75
2022/08/26 03:31:56;;;;;;;19.63;5.13;;;;;;;19.32;93.00;101373.69;5071291;28;20082;-75
2022/08/26 03:34:21;;;;;;;24.23;4.95;;;;;;;19.33;93.24;101381.69;5073180;28;20587;-75
2022/08/26 03:36:46;;;;;;;15.88;5.30;;;;;;;19.34;92.89;101377.09;5076289;28;20064;-75
2022/08/26 03:39:12;;;;;;;15.20;4.93;;;;;;;19.35;92.79;101378.81;5077039;28;20020;-75
2022/08/26 03:41:38;;;;;;;19.70;5.30;;;;;;;19.36;92.71;101377.81;5077328;28;20452;-75
2022/08/26 03:44:05;;;;;;;13.02;4.18;;;;;;;19.36;92.63;101380.53;5067378;28;20029;-75
2022/08/26 03:46:34;;;;;;;17.90;4.82;;;;;;;19.36;92.30;101367.75;5064501;28;20048;-75
2022/08/26 03:49:00;;;;;;;23.13;4.70;;;;;;;19.39;91.90;101372.03;5075526;28;20034;-75
2022/08/26 03:51:26;;;;;;;10.40;3.70;;;;;;;19.36;92.36;101381.38;5075058;28;20110;-75
2022/08/26 03:53:51;;;;;;;17.23;4.50;;;;;;;19.34;92.63;101374.34;5076437;28;20020;-75
2022/08/26 03:56:17;;;;;;;11.18;3.83;;;;;;;19.33;92.60;101372.66;5072017;28;20370;-75
2022/08/26 03:58:43;;;;;;;12.68;3.83;;;;;;;19.32;92.61;101379.13;5063379;28;20040;-75
2022/08/26 04:01:10;;;;;;;17.88;4.30;;;;;;;19.33;92.76;101378.13;5074006;28;20040;-75
2022/08/26 04:06:20;;;;;;;10.88;3.80;;;;;;;19.31;93.07;101385.59;5068661;28;20044;-75
2022/08/26 04:08:45;;;;;;;11.98;3.60;;;;;;;19.33;93.00;101380.84;5068470;28;20032;-75
2022/08/26 04:11:20;;;;;;;12.50;3.88;;;;;;;19.34;92.67;101380.69;5076072;28;20036;-75
2022/08/26 04:13:46;;;;;;;20.48;4.40;;;;;;;19.35;92.81;101386.97;5059460;28;20028;-75
2022/08/26 04:16:13;;;;;;;10.75;4.07;;;;;;;19.35;92.44;101384.25;5073317;28;20525;-75
2022/08/26 04:18:38;;;;;;;16.70;3.92;;;;;;;19.34;92.56;101372.50;5071965;28;20028;-75
2022/08/26 04:21:04;;;;;;;13.30;4.05;;;;;;;19.35;92.65;101376.09;5076049;28;20085;-75
2022/08/26 04:23:30;;;;;;;12.80;3.90;;;;;;;19.35;92.48;101374.19;5076426;28;20055;-75
2022/08/26 04:25:55;;;;;;;15.70;4.40;;;;;;;19.34;93.21;101374.34;5076494;28;20020;-75
2022/08/26 04:28:21;;;;;;;11.55;3.75;;;;;;;19.32;92.52;101371.78;5076106;28;20029;-75
2022/08/26 04:30:46;;;;;;;13.15;3.83;;;;;;;19.30;93.14;101376.56;5075159;28;20024;-75
2022/08/26 04:33:12;;;;;;;15.65;3.92;;;;;;;19.29;93.26;101374.84;5074097;28;20098;-75
2022/08/26 04:35:38;;;;;;;11.18;3.60;;;;;;;19.26;92.48;101368.84;5066435;28;20473;-75
2022/08/26 04:38:03;;;;;;;14.07;4.00;;;;;;;19.24;92.70;101370.88;5073307;28;20028;-75
2022/08/26 04:40:29;;;;;;;13.95;3.70;;;;;;;19.25;92.91;101376.16;5075090;28;20056;-75
2022/08/26 04:42:54;;;;;;;12.55;3.50;;;;;;;19.27;92.51;101384.19;5075216;28;20024;-75
2022/08/26 04:45:19;;;;;;;10.85;3.60;;;;;;;19.27;92.49;101382.31;5075269;28;20032;-75
2022/08/26 04:47:45;;;;;;;16.15;4.00;;;;;;;19.28;92.44;101383.16;5059683;28;20391;-75
2022/08/26 04:50:11;;;;;;;11.88;3.47;;;;;;;19.28;92.53;101383.16;5075520;28;20154;-75
2022/08/26 04:52:37;;;;;;;14.57;3.88;;;;;;;19.27;92.33;101385.06;5073489;28;20154;-75
2022/08/26 04:55:03;;;;;;;15.10;3.40;;;;;;;19.26;92.23;101387.94;5073899;28;20024;-75
2022/08/26 04:57:29;;;;;;;12.23;3.63;;;;;;;19.25;92.40;101388.94;5076139;28;20427;-75
2022/08/26 04:59:54;;;;;;;11.52;3.33;;;;;;;19.24;92.55;101379.03;5072669;28;20027;-75
2022/08/26 05:02:20;;;;;;;9.32;3.25;;;;;;;19.25;92.53;101384.34;5071514;28;20082;-75
2022/08/26 05:04:45;;;;;;;11.85;3.40;;;;;;;19.22;93.10;101384.66;5073444;28;20042;-75
2022/08/26 05:07:10;;;;;;;13.52;3.28;;;;;;;19.25;92.96;101391.66;5074277;28;20032;-75
2022/08/26 05:09:38;;;;;;;14.98;3.97;;;;;;;19.23;92.88;101394.53;5074816;28;20082;-75
2022/08/26 05:12:04;;;;;;;14.07;3.92;;;;;;;19.26;92.83;101391.50;5075134;28;20021;-75
2022/08/26 05:14:29;;;;;;;10.98;3.35;;;;;;;19.29;92.66;101390.34;5075364;28;20040;-75
2022/08/26 05:16:55;;;;;;;12.88;3.80;;;;;;;19.29;92.67;101393.91;5074580;28;20031;-75
2022/08/26 05:19:20;;;;;;;11.40;3.40;;;;;;;19.30;92.66;101392.06;5075625;28;20099;-75
2022/08/26 05:21:47;;;;;;;11.98;4.20;;;;;;;19.32;92.68;101395.47;5074808;28;20031;-75
2022/08/26 05:24:12;;;;;;;11.02;3.50;;;;;;;19.32;92.72;101390.03;5072083;28;20388;-75
2022/08/26 05:26:38;;;;;;;16.58;3.88;;;;;;;19.34;93.02;101390.72;5073042;28;20028;-75
2022/08/26 05:29:05;;;;;;;10.15;3.60;;;;;;;19.34;92.94;101388.00;5064912;28;20452;-75
2022/08/26 05:31:32;;;;;;;15.68;3.47;;;;;;;19.36;93.10;101396.88;5072817;28;20038;-75
2022/08/26 05:34:03;;;;;;;14.60;3.42;;;;;;;19.37;92.79;101393.13;5067810;28;20131;-75
2022/08/26 05:36:30;;;;;;;13.05;3.85;;;;;;;19.39;92.49;101399.28;5073332;28;20025;-75
2022/08/26 05:38:56;;;;;;;10.80;3.25;;;;;;;19.44;92.09;101401.53;5069303;28;20027;-75
2022/08/26 05:41:31;;;;;;;21.35;3.63;;;;;;;19.45;92.50;101398.66;5072626;28;20488;-75
2022/08/26 05:43:59;;;;;;;11.13;3.35;;;;;;;19.44;92.28;101404.25;5069505;28;20449;-75
2022/08/26 05:46:28;;;;;;;15.27;3.42;;;;;;;19.45;92.38;101403.25;5071174;28;20033;-75
2022/08/26 05:48:54;;;;;;;17.63;3.83;;;;;;;19.45;91.98;101398.66;5070795;28;20446;-75
2022/08/26 05:51:20;;;;;;;10.70;3.20;;;;;;;19.49;92.09;101401.94;5077272;28;20074;-75
2022/08/26 05:53:46;;;;;;;11.98;3.65;;;;;;;19.49;91.86;101408.25;5075258;28;20047;-75
2022/08/26 05:56:11;;;;;;;13.27;3.70;;;;;;;19.50;91.36;101412.69;5069530;28;20055;-75
2022/08/26 05:58:39;;;;;;;12.90;3.67;;;;;;;19.51;91.98;101417.09;5077151;28;20059;-75
2022/08/26 06:01:13;;;;;;;9.00;3.22;;;;;;;19.50;92.08;101420.88;5072982;28;20085;-75
2022/08/26 06:03:43;;;;;;;8.85;2.88;;;;;;;19.50;92.13;101420.00;5077695;28;20028;-75
2022/08/26 06:06:13;;;;;;;12.80;2.97;;;;;;;19.50;91.36;101429.03;5072747;28;20044;-75
2022/08/26 06:08:38;;;;;;;11.77;3.13;;;;;;;19.52;91.71;101435.19;5075499;28;20024;-75
2022/08/26 06:11:07;;;;;;;12.73;3.65;;;;;;;19.57;91.40;101431.97;5073110;28;20031;-75
2022/08/26 06:13:33;;;;;;;12.07;3.30;;;;;;;19.59;91.51;101432.69;5062715;28;20493;-75
2022/08/26 06:16:05;;;;;;;12.10;2.80;;;;;;;19.61;90.29;101433.38;5077622;28;20028;-75
2022/08/26 06:18:35;;;;;;;10.70;3.15;;;;;;;19.63;89.94;101436.78;5074709;28;20495;-72
2022/08/26 06:21:12;;;;;;;14.98;3.58;;;;;;;19.67;90.05;101437.34;5077822;28;20028;-72
2022/08/26 06:26:22;;;;;;;9.63;3.17;;;;;;;19.72;89.86;101443.19;5077658;28;20063;-72
2022/08/26 06:28:47;;;;;;;8.82;2.90;;;;;;;19.71;89.28;101447.78;5077357;28;20025;-72
2022/08/26 06:31:14;;;;;;;13.73;2.65;;;;;;;19.73;89.95;101442.16;5076830;28;20578;-72
2022/08/26 06:33:39;;;;;;;13.82;2.97;;;;;;;19.72;89.43;101441.31;5074668;28;20469;-72
2022/08/26 06:36:05;;;;;;;12.38;2.80;;;;;;;19.73;89.73;101447.63;5077246;28;20035;-72
2022/08/26 06:38:30;;;;;;;11.77;2.60;;;;;;;19.74;90.89;101446.63;5074822;28;20043;-72
2022/08/26 06:40:56;;;;;;;11.27;2.65;;;;;;;19.76;88.96;101446.47;5073011;28;20028;-72
2022/08/26 06:43:24;;;;;;;7.53;2.53;;;;;;;19.78;89.64;101452.59;5075098;28;20024;-72
2022/08/26 06:45:51;;;;;;;9.23;2.38;;;;;;;19.80;89.76;101448.75;5075360;28;20025;-72
2022/08/26 06:48:19;;;;;;;10.55;3.03;;;;;;;19.80;89.62;101454.19;5072075;28;20039;-72
2022/08/26 06:50:45;;;;;;;11.63;2.55;;;;;;;19.83;89.69;101455.75;5074446;28;20024;-72
2022/08/26 06:53:12;;;;;;;8.90;2.50;;;;;;;19.85;89.65;101457.28;5074430;28;20103;-72
2022/08/26 06:55:42;;;;;;;12.48;3.10;;;;;;;19.86;89.32;101467.19;5075316;28;20027;-71
2022/08/26 06:58:08;;;;;;;8.45;2.30;;;;;;;19.90;89.99;101454.09;5088055;28;20025;-71
2022/08/26 07:00:35;;;;;;;11.00;2.65;;;;;;;19.94;89.35;101457.34;5071659;28;20504;-71
2022/08/26 07:03:01;;;;;;;9.82;2.47;;;;;;;19.97;89.89;101457.03;5071887;28;20129;-71
2022/08/26 07:05:26;;;;;;;6.57;2.20;;;;;;;19.98;89.23;101458.75;5074629;28;20033;-72
2022/08/26 07:07:52;;;;;;;11.30;2.30;;;;;;;20.00;89.59;101454.88;5073557;28;20059;-73
2022/08/26 07:10:17;;;;;;;12.25;2.85;;;;;;;20.03;89.18;101453.66;5075438;28;20032;-72
2022/08/26 07:12:42;;;;;;;9.32;2.65;;;;;;;20.06;88.31;101461.56;5072417;28;20058;-72
2022/08/26 07:15:09;;;;;;;6.10;2.60;;;;;;;20.08;88.35;101454.06;5076868;28;20039;-72
2022/08/26 07:17:34;;;;;;;11.63;2.45;;;;;;;20.12;88.03;101452.72;5076876;28;20520;-72
2022/08/26 07:19:59;;;;;;;10.82;2.35;;;;;;;20.15;88.09;101449.66;5077803;28;20025;-73
2022/08/26 07:22:25;;;;;;;7.07;2.35;;;;;;;20.17;87.44;101463.16;5077818;28;20025;-72
2022/08/26 07:24:50;;;;;;;9.95;3.22;;;;;;;20.18;87.97;101459.41;5073763;28;20115;-73
2022/08/26 07:27:16;;;;;;;11.23;2.58;;;;;;;20.21;87.23;101459.94;5077348;28;20043;-73
2022/08/26 07:29:42;;;;;;;13.98;2.92;;;;;;;20.23;87.23;101465.22;5073732;28;20028;-73
2022/08/26 07:32:08;;;;;;;10.95;3.03;;;;;;;20.24;86.98;101462.34;5076523;28;20020;-73
2022/08/26 07:34:36;;;;;;;10.05;2.28;;;;;;;20.27;87.28;101466.63;5072724;28;20080;-73
2022/08/26 07:37:02;;;;;;;9.45;2.22;;;;;;;20.32;87.36;101461.53;5073957;28;20515;-74
2022/08/26 07:39:29;;;;;;;9.25;2.58;;;;;;;20.36;86.33;101464.81;5072063;28;20047;-75
2022/08/26 07:41:54;;;;;;;7.05;2.28;;;;;;;20.40;87.02;101464.31;5072716;28;20043;-72
2022/08/26 07:44:19;;;;;;;11.75;2.85;;;;;;;20.47;86.91;101475.44;5073922;28;20035;-74
2022/08/26 07:46:45;;;;;;;13.07;3.25;;;;;;;20.48;85.27;101474.41;5074610;28;20031;-74
2022/08/26 07:49:10;;;;;;;8.95;2.70;;;;;;;20.47;85.23;101475.44;5043882;28;20068;-74
2022/08/26 07:51:36;;;;;;;14.18;3.33;;;;;;;20.51;85.42;101485.00;5069994;28;20023;-74
2022/08/26 07:54:03;;;;;;;10.55;3.00;;;;;;;20.56;85.67;101479.94;5064833;28;20123;-74
2022/08/26 07:56:28;;;;;;;10.52;2.65;;;;;;;20.60;85.83;101478.59;5071824;28;20029;-74
2022/08/26 07:58:53;;;;;;;10.15;2.60;;;;;;;20.64;84.34;101476.38;5070418;28;20031;-74
2022/08/26 08:01:22;;;;;;;7.88;2.63;;;;;;;20.68;84.08;101490.59;5065952;28;20033;-74
2022/08/26 08:03:50;;;;;;;8.57;2.75;;;;;;;20.70;83.77;101486.66;5070282;28;20119;-75
2022/08/26 08:06:16;;;;;;;9.45;2.70;;;;;;;20.74;83.66;101490.78;5053581;28;20021;-75
2022/08/26 08:08:42;;;;;;;11.18;2.80;;;;;;;20.79;85.14;101487.56;5071780;28;20427;-75
2022/08/26 08:11:07;;;;;;;9.23;2.58;;;;;;;20.82;83.34;101490.00;5070694;28;20020;-75
2022/08/26 08:13:32;;;;;;;11.80;2.92;;;;;;;20.83;82.78;101482.63;5071610;28;20036;-75
2022/08/26 08:15:57;;;;;;;5.75;2.47;;;;;;;20.86;82.06;101496.81;5073123;28;20024;-75
2022/08/26 08:18:23;;;;;;;8.18;2.63;;;;;;;20.90;82.95;101495.47;5071046;28;20111;-74
2022/08/26 08:20:48;;;;;;;12.02;2.83;;;;;;;20.91;81.88;101489.00;5073140;28;20099;-74
2022/08/26 08:23:15;;;;;;;6.70;2.20;;;;;;;20.90;81.41;101489.16;5069012;28;20024;-75
2022/08/26 08:25:40;;;;;;;15.27;2.42;;;;;;;20.89;80.29;101490.16;5070742;28;20027;-75
2022/08/26 08:28:05;;;;;;;7.78;2.60;;;;;;;20.90;80.41;101494.63;5073947;28;20471;-74
2022/08/26 08:30:31;;;;;;;9.38;2.15;;;;;;;20.90;80.49;101494.63;5073761;28;20024;-75
2022/08/26 08:32:56;;;;;;;8.88;2.55;;;;;;;20.92;81.26;101492.56;5071341;28;20496;-75
2022/08/26 08:35:22;;;;;;;12.52;3.05;;;;;;;20.92;80.53;101495.31;5072867;28;20109;-75
2022/08/26 08:37:52;;;;;;;7.28;2.28;;;;;;;20.94;79.19;101498.75;5074271;28;20028;-75
2022/08/26 08:40:19;;;;;;;7.28;2.33;;;;;;;20.95;79.33;101492.22;5072294;28;20031;-75
2022/08/26 08:43:01;;;;;;;6.78;2.08;;;;;;;21.00;80.39;101494.50;5073625;28;20021;-75
2022/08/26 08:45:36;;;;;;;10.45;2.38;;;;;;;21.00;79.21;101489.88;5073971;28;20024;-75
2022/08/26 08:48:08;;;;;;;7.22;2.13;;;;;;;21.05;79.87;101489.38;5064434;28;20392;-75
2022/08/26 08:50:41;;;;;;;9.25;2.08;;;;;;;21.08;79.84;101491.78;5053209;28;20031;-75
2022/08/26 08:53:15;;;;;;;9.32;2.88;;;;;;;21.09;79.20;101493.50;5070716;28;20204;-75
2022/08/26 08:55:50;;;;;;;6.72;2.47;;;;;;;21.10;79.26;101497.94;5073245;28;20035;-75
2022/08/26 08:58:19;;;;;;;9.80;2.40;;;;;;;21.09;78.99;101498.97;5070668;28;20028;-75
2022/08/26 09:00:53;;;;;;;8.00;2.40;;;;;;;21.08;78.87;101502.69;5072546;28;20545;-75
2022/08/26 09:03:40;;;;;;;5.50;2.40;;;;;;;21.08;79.70;101506.31;5070499;28;20040;-75
2022/08/26 09:06:15;;;;;;;11.88;2.55;;;;;;;21.04;79.17;101506.78;5072239;28;20029;-74
2022/08/26 09:08:43;;;;;;;13.40;2.83;;;;;;;21.03;79.73;101510.56;5074176;28;20032;-74
2022/08/26 09:11:08;;;;;;;5.88;2.30;;;;;;;21.02;78.56;101504.22;5060233;28;20021;-74
2022/08/26 09:13:36;;;;;;;12.02;3.00;;;;;;;21.03;79.41;101513.28;5071482;28;20051;-73
2022/08/26 09:16:12;;;;;;;7.97;2.33;;;;;;;21.05;79.66;101506.63;5070028;28;20392;-75
2022/08/26 09:18:58;;;;;;;4.03;2.10;;;;;;;21.10;80.03;101506.16;5065930;28;20020;-74
2022/08/26 09:21:25;;;;;;;9.20;2.65;;;;;;;21.14;78.54;101507.50;5071245;28;20028;-75
2022/08/26 09:23:54;;;;;;;7.75;2.10;;;;;;;21.16;78.46;101502.75;5073367;28;20039;-75
2022/08/26 09:26:21;;;;;;;;;;;;;;;21.23;79.81;101503.78;5075782;28;20040;-75
2022/08/26 09:28:56;;;;;;;7.78;2.30;;;;;;;21.21;78.12;101508.56;5073669;28;20376;-76
2022/08/26 09:31:33;;;;;;;9.10;3.05;;;;;;;21.22;78.16;101512.16;5080364;28;20029;-76
2022/08/26 09:34:24;;;;;;;11.25;3.33;;;;;;;21.23;78.05;101511.13;5075190;28;20048;-76
2022/08/26 09:36:57;;;;;;;16.40;3.92;;;;;;;21.21;78.68;101521.38;5075241;28;20040;-76
2022/08/26 09:39:22;;;;;;;13.15;3.53;;;;;;;21.21;78.03;101519.47;5075278;28;20059;-75
2022/08/26 09:42:03;;;;;;;10.50;2.85;;;;;;;21.22;77.81;101521.19;5075601;28;20453;-75
2022/08/26 09:44:30;;;;;;;10.73;2.47;;;;;;;21.21;77.56;101524.94;5075579;28;20103;-75
2022/08/26 09:46:58;;;;;;;10.77;2.30;;;;;;;21.22;78.60;101514.91;5065667;28;20055;-75
2022/08/26 09:49:31;;;;;;;14.48;2.65;;;;;;;21.23;77.45;101517.47;5055614;28;20066;-75
2022/08/26 09:52:12;;;;;;;8.40;2.13;;;;;;;21.24;77.27;101519.16;5066937;28;20503;-75
2022/08/26 09:54:38;;;;;;;12.00;2.28;;;;;;;21.26;77.04;101518.97;5075973;28;20032;-75
2022/08/26 09:57:19;;;;;;;11.60;2.47;;;;;;;21.27;77.48;101518.84;5073484;28;20036;-75
2022/08/26 09:59:44;;;;;;;17.05;2.45;;;;;;;21.30;77.61;101526.72;5073689;28;20017;-74
2022/08/26 10:02:16;;;;;;;16.00;2.88;;;;;;;21.29;77.03;101518.69;5073531;28;20383;-75
2022/08/26 10:04:49;;;;;;;9.45;2.55;;;;;;;21.28;77.74;101525.16;5068568;28;20043;-75
2022/08/26 10:07:34;;;;;;;7.43;2.13;;;;;;;21.26;77.04;101521.72;5072428;28;20107;-75
2022/08/26 10:10:03;;;;;;;7.97;2.50;;;;;;;21.22;76.45;101523.09;5069599;28;20391;-75
2022/08/26 10:12:33;;;;;;;9.88;2.55;;;;;;;21.24;77.09;101534.72;5072567;28;20377;-75
2022/08/26 10:15:06;;;;;;;5.63;2.10;;;;;;;21.25;76.26;101525.50;5063789;28;20500;-74
2022/08/26 10:17:42;;;;;;;8.30;2.25;;;;;;;21.28;77.46;101520.53;5060006;28;20071;-71
2022/08/26 10:20:18;;;;;;;14.15;3.22;;;;;;;21.33;78.12;101519.19;5060421;28;20471;-73
2022/08/26 10:23:06;;;;;;;10.00;2.55;;;;;;;21.36;77.19;101521.56;5071596;28;20028;-74
2022/08/26 10:25:53;;;;;;;6.53;2.10;;;;;;;21.39;78.63;101518.50;5074199;28;20108;-73
2022/08/26 10:28:42;;;;;;;10.52;2.58;;;;;;;21.40;77.45;101517.50;5069238;28;20033;-75
2022/08/26 10:31:25;;;;;;;10.80;2.42;;;;;;;21.44;77.60;101514.25;5066459;28;20031;-75
2022/08/26 10:33:51;;;;;;;12.40;3.17;;;;;;;21.46;78.75;101525.03;5054164;28;20508;-75
2022/08/26 10:37:03;;;;;;;7.20;2.40;;;;;;;21.46;77.35;101514.97;5060046;28;20062;-75
2022/08/26 10:39:16;;;;;;;9.27;3.08;;;;;;;21.50;78.82;101520.09;5057391;28;20111;-75
2022/08/26 10:41:46;;;;;;;7.57;2.35;;;;;;;21.44;76.46;101519.72;5069284;28;20028;-75
2022/08/26 10:44:16;;;;;;;12.32;2.80;;;;;;;21.44;76.17;101516.97;5072708;28;20073;-75
2022/08/26 10:46:49;;;;;;;5.50;2.00;;;;;;;21.46;77.15;101517.69;5074414;28;20434;-76
2022/08/26 10:49:16;;;;;;;6.35;2.42;;;;;;;21.48;77.76;101517.53;5074177;28;20365;-75
2022/08/26 10:51:51;;;;;;;10.90;2.83;;;;;;;21.48;76.92;101517.53;5072892;28;20021;-75
2022/08/26 10:54:33;;;;;;;7.20;2.42;;;;;;;21.48;76.48;101515.63;5073910;28;20116;-74
2022/08/26 10:57:14;;;;;;;7.05;2.35;;;;;;;21.48;77.26;101521.09;5072747;28;20028;-74
2022/08/26 10:59:57;;;;;;;13.63;2.83;;;;;;;21.47;76.79;101526.75;5075370;28;20021;-74
2022/08/26 11:02:35;;;;;;;7.47;2.35;;;;;;;21.43;75.65;101528.09;5080324;28;20498;-74
2022/08/26 11:05:05;;;;;;;9.93;2.65;;;;;;;21.39;76.21;101527.59;5073844;28;20035;-74
2022/08/26 11:07:45;;;;;;;9.95;1.92;;;;;;;21.36;76.59;101525.16;5062455;28;20493;-74
2022/08/26 11:10:19;;;;;;;6.20;2.20;;;;;;;21.33;76.20;101522.75;5055933;28;20028;-74
2022/08/26 11:12:52;;;;;;;6.97;2.20;;;;;;;21.31;76.31;101524.81;5069141;28;20032;-74
2022/08/26 11:15:20;;;;;;;8.15;1.88;;;;;;;21.28;76.52;101527.88;5074471;28;20032;-74
2022/08/26 11:17:45;;;;;;;7.88;2.25;;;;;;;21.28;76.53;101517.78;5071035;28;20048;-73
2022/08/26 11:20:32;;;;;;;12.52;2.60;;;;;;;21.29;76.97;101516.78;5073310;28;20044;-74
2022/08/26 11:23:21;;;;;;;9.63;2.60;;;;;;;21.30;76.83;101521.25;5073014;28;20020;-73
2022/08/26 11:25:55;;;;;;;8.90;2.63;;;;;;;21.27;75.19;101513.38;5072191;28;20032;-72
2022/08/26 11:28:39;;;;;;;17.50;3.78;;;;;;;21.27;76.16;101513.38;5070950;28;20038;-73
2022/08/26 11:31:31;;;;;;;9.30;2.70;;;;;;;21.25;76.73;101518.13;5071532;28;20025;-73
2022/08/26 11:34:01;;;;;;;5.00;2.10;;;;;;;21.24;76.59;101518.31;5071309;28;20135;-74